createdAt,value
2019-04-25T02:50:03.142Z,0.1
2019-04-25T02:52:02.590Z,0.2
2019-04-25T02:53:01.314Z,0.3
2019-04-25T02:55:02.114Z,0.4
2019-04-25T02:56:01.751Z,0.5
2019-04-25T02:58:00.977Z,0.6
2019-04-25T02:59:00.946Z,0.7
2019-04-25T03:00:02.654Z,0.7
2019-04-25T03:01:10.521Z,0.8
2019-04-25T03:02:00.952Z,0.9
2019-04-25T03:04:01.021Z,1.0
2019-04-25T03:10:01.972Z,1.1
2019-04-25T03:12:01.702Z,1.2
2019-04-25T03:13:01.921Z,1.3
2019-04-25T03:14:02.085Z,1.5
2019-04-25T03:15:02.049Z,1.8
2019-04-25T03:16:02.388Z,2.1
2019-04-25T03:17:01.918Z,2.5
2019-04-25T03:18:02.254Z,3.1
2019-04-25T03:19:02.091Z,3.7
2019-04-25T03:20:01.897Z,4.5
2019-04-25T03:21:01.552Z,5.5
2019-04-25T03:22:01.522Z,6.7
2019-04-25T03:23:01.250Z,8.0
2019-04-25T03:24:01.400Z,9.6
2019-04-25T03:25:01.995Z,11.5
2019-04-25T03:26:00.991Z,13.7
2019-04-25T03:27:00.959Z,16.3
2019-04-25T03:28:01.225Z,19.3
2019-04-25T03:29:01.222Z,22.9
2019-04-25T03:30:01.904Z,26.9
2019-04-25T03:31:02.033Z,31.4
2019-04-25T03:32:02.621Z,36.4
2019-04-25T03:33:02.424Z,41.5
2019-04-25T03:34:02.342Z,46.4
2019-04-25T03:35:01.283Z,50.9
2019-04-25T03:36:01.571Z,54.7
2019-04-25T03:37:01.753Z,58.3
2019-04-25T03:38:01.457Z,61.4
2019-04-25T03:39:00.981Z,64.8
2019-04-25T03:40:02.135Z,68.9
2019-04-25T03:41:01.014Z,73.5
2019-04-25T03:42:01.327Z,78.1
2019-04-25T03:43:01.285Z,83.7
2019-04-25T03:44:01.622Z,91.3
2019-04-25T03:45:01.449Z,101.5
2019-04-25T03:46:02.420Z,116.0
2019-04-25T03:47:01.145Z,138.6
2019-04-25T03:48:01.140Z,164.2
2019-04-25T03:49:01.201Z,186.1
2019-04-25T03:50:01.570Z,199.3
2019-04-25T03:51:02.694Z,208.8
2019-04-25T03:52:01.529Z,217.5
2019-04-25T03:53:01.684Z,225.1
2019-04-25T03:54:01.664Z,231.7
2019-04-25T03:55:02.187Z,237.3
2019-04-25T03:56:00.994Z,241.5
2019-04-25T03:57:00.992Z,246.3
2019-04-25T03:58:00.999Z,249.9
2019-04-25T03:59:01.017Z,254.7
2019-04-25T04:00:01.210Z,260.4
2019-04-25T04:01:00.996Z,263.1
2019-04-25T04:02:01.270Z,257.0
2019-04-25T04:03:00.993Z,247.3
2019-04-25T04:04:00.995Z,244.2
2019-04-25T04:05:01.141Z,252.4
2019-04-25T04:06:00.993Z,267.2
2019-04-25T04:07:00.993Z,286.0
2019-04-25T04:08:00.994Z,307.9
2019-04-25T04:09:00.994Z,333.1
2019-04-25T04:10:01.213Z,360.3
2019-04-25T04:11:00.995Z,390.0
2019-04-25T04:12:00.999Z,414.9
2019-04-25T04:13:00.994Z,436.1
2019-04-25T04:14:00.998Z,452.1
2019-04-25T04:15:03.632Z,468.2
2019-04-25T04:16:01.002Z,490.9
2019-04-25T04:17:00.995Z,517.2
2019-04-25T04:18:00.998Z,544.8
2019-04-25T04:19:00.996Z,569.4
2019-04-25T04:20:01.140Z,591.3
2019-04-25T04:21:01.024Z,612.4
2019-04-25T04:22:00.997Z,634.1
2019-04-25T04:23:00.997Z,653.0
2019-04-25T04:24:00.998Z,674.2
2019-04-25T04:25:01.146Z,694.3
2019-04-25T04:26:01.000Z,715.8
2019-04-25T04:27:03.521Z,745.7
2019-04-25T04:28:01.001Z,780.4
2019-04-25T04:29:01.005Z,814.5
2019-04-25T04:30:01.150Z,842.9
2019-04-25T04:31:01.001Z,866.2
2019-04-25T04:32:00.999Z,884.9
2019-04-25T04:33:01.000Z,910.2
2019-04-25T04:34:03.601Z,943.7
2019-04-25T04:35:01.191Z,973.9
2019-04-25T04:36:01.004Z,1035.2
2019-04-25T04:37:01.032Z,1089.9
2019-04-25T04:38:01.006Z,1158.5
2019-04-25T04:39:01.000Z,1210.1
2019-04-25T04:40:01.144Z,1273.1
2019-04-25T04:41:00.999Z,1347.8
2019-04-25T04:42:01.033Z,1420.9
2019-04-25T04:43:01.000Z,1492.9
2019-04-25T04:44:01.004Z,1561.0
2019-04-25T04:45:01.154Z,1635.0
2019-04-25T04:46:01.008Z,1699.5
2019-04-25T04:47:01.032Z,1765.9
2019-04-25T04:48:01.002Z,1836.9
2019-04-25T04:49:00.970Z,1928.0
2019-04-25T04:50:01.356Z,2070.3
2019-04-25T04:51:03.276Z,2227.7
2019-04-25T04:52:01.002Z,2415.3
2019-04-25T04:53:01.002Z,2627.1
2019-04-25T04:54:01.002Z,2902.0
2019-04-25T04:55:06.164Z,3250.4
2019-04-25T04:56:01.003Z,3659.1
2019-04-25T04:57:01.004Z,4128.3
2019-04-25T04:58:01.427Z,4661.0
2019-04-25T04:59:01.003Z,5217.7
2019-04-25T05:00:01.161Z,5948.5
2019-04-25T05:01:01.001Z,7008.0
2019-04-25T05:02:01.006Z,8206.6
2019-04-25T05:03:01.004Z,9346.9
2019-04-25T05:04:01.004Z,10440.5
2019-04-25T05:05:01.149Z,11535.2
2019-04-25T05:06:01.002Z,12838.7
2019-04-25T05:07:01.003Z,14297.0
2019-04-25T05:08:01.004Z,15730.1
2019-04-25T05:09:01.023Z,16786.1
2019-04-25T05:10:01.148Z,17479.1
2019-04-25T05:11:01.004Z,17951.4
2019-04-25T05:12:01.006Z,18331.4
2019-04-25T05:13:01.004Z,18535.2
2019-04-25T05:14:01.009Z,18651.1
2019-04-25T05:15:01.154Z,18416.4
2019-04-25T05:16:01.007Z,17819.6
2019-04-25T05:17:01.012Z,16991.5
2019-04-25T05:18:01.009Z,16198.6
2019-04-25T05:19:01.010Z,15430.3
2019-04-25T05:20:01.214Z,14592.2
2019-04-25T05:21:01.006Z,13575.2
2019-04-25T05:22:03.479Z,12636.2
2019-04-25T05:23:01.010Z,12011.2
2019-04-25T05:24:01.005Z,11822.0
2019-04-25T05:25:03.434Z,12085.2
2019-04-25T05:26:01.006Z,12473.8
2019-04-25T05:27:01.010Z,13062.9
2019-04-25T05:28:03.033Z,14027.8
2019-04-25T05:29:01.012Z,15279.3
2019-04-25T05:30:01.160Z,16893.0
2019-04-25T05:31:01.016Z,18565.3
2019-04-25T05:32:01.010Z,20289.0
2019-04-25T05:33:01.013Z,22254.1
2019-04-25T05:34:01.011Z,24136.1
2019-04-25T05:35:01.183Z,26203.7
2019-04-25T05:36:01.024Z,28032.9
2019-04-25T05:37:01.011Z,29690.9
2019-04-25T05:38:01.015Z,31389.7
2019-04-25T05:39:01.012Z,33333.8
2019-04-25T05:40:01.167Z,35214.3
2019-04-25T05:41:01.013Z,36842.5
2019-04-25T05:42:01.012Z,38020.6
2019-04-25T05:43:01.017Z,38898.5
2019-04-25T05:44:01.011Z,39652.1
2019-04-25T05:45:01.161Z,40152.5
2019-04-25T05:46:01.013Z,40687.0
2019-04-25T05:47:01.014Z,41596.3
2019-04-25T05:48:01.013Z,42467.4
2019-04-25T05:49:01.017Z,43499.7
2019-04-25T05:50:01.223Z,44449.5
2019-04-25T05:51:01.012Z,45649.7
2019-04-25T05:52:01.298Z,46921.8
2019-04-25T05:53:01.012Z,47959.3
2019-04-25T05:54:01.012Z,48915.7
2019-04-25T05:55:01.223Z,49908.3
2019-04-25T05:56:01.018Z,51127.5
2019-04-25T05:57:01.025Z,52554.9
2019-04-25T05:58:01.046Z,54017.5
2019-04-25T05:59:01.015Z,55551.0
2019-04-25T06:00:01.387Z,57170.9
2019-04-25T06:01:01.019Z,58560.5
2019-04-25T06:02:01.016Z,59249.7
2019-04-25T06:03:01.015Z,59566.6
2019-04-25T06:04:01.017Z,59732.6
2019-04-25T06:05:01.170Z,59937.1
2019-04-25T06:06:01.018Z,60133.0
2019-04-25T06:07:01.017Z,60107.7
2019-04-25T06:08:01.047Z,59993.7
2019-04-25T06:09:01.019Z,59618.0
2019-04-25T06:10:01.206Z,59223.5
2019-04-25T06:11:01.020Z,59024.9
2019-04-25T06:12:01.023Z,58954.1
2019-04-25T06:13:01.022Z,58961.0
2019-04-25T06:14:01.020Z,58938.9
2019-04-25T06:15:01.230Z,58938.9
2019-04-25T06:16:01.021Z,59116.3
2019-04-25T06:17:01.021Z,59659.2
2019-04-25T06:18:01.054Z,60382.1
2019-04-25T06:19:11.744Z,61116.1
2019-04-25T06:20:04.392Z,61548.1
2019-04-25T06:21:00.992Z,61955.7
2019-04-25T06:22:01.030Z,62576.1
2019-04-25T06:23:01.060Z,63181.3
2019-04-25T06:24:01.023Z,63774.2
2019-04-25T06:25:01.235Z,64237.8
2019-04-25T06:26:15.919Z,64551.5
2019-04-25T06:27:00.993Z,64807.3
2019-04-25T06:28:01.026Z,64987.3
2019-04-25T06:29:01.029Z,65032.9
2019-04-25T06:30:01.174Z,65032.9
2019-04-25T06:34:01.091Z,65088.7
2019-04-25T06:35:01.280Z,65325.9
2019-04-25T06:36:01.030Z,65506.5
2019-04-25T06:37:02.431Z,65535.0
2019-04-25T06:45:01.302Z,65535.0
2019-04-25T07:00:01.192Z,65535.0
2019-04-25T07:15:01.308Z,65535.0
2019-04-25T07:30:01.194Z,65535.0
2019-04-25T07:45:01.356Z,65535.0
2019-04-25T07:58:01.052Z,65155.4
2019-04-25T07:59:01.050Z,64622.9
2019-04-25T08:00:01.282Z,64288.2
2019-04-25T08:01:01.054Z,63602.9
2019-04-25T08:02:01.051Z,62713.7
2019-04-25T08:03:01.053Z,61897.6
2019-04-25T08:04:01.051Z,61512.3
2019-04-25T08:13:01.178Z,61891.9
2019-04-25T08:14:01.052Z,62424.5
2019-04-25T08:15:01.200Z,62759.1
2019-04-25T08:16:01.074Z,63444.4
2019-04-25T08:17:01.056Z,64333.6
2019-04-25T08:18:01.054Z,65149.7
2019-04-25T08:19:01.067Z,65535.0
2019-04-25T08:30:01.394Z,65535.0
2019-04-25T08:45:01.335Z,65535.0
2019-04-25T09:00:03.943Z,65535.0
2019-04-25T09:15:01.345Z,65535.0
2019-04-25T09:30:01.213Z,65535.0
2019-04-25T09:45:01.346Z,65535.0
2019-04-25T10:00:01.227Z,65535.0
2019-04-25T10:15:01.297Z,65535.0
2019-04-25T10:30:14.357Z,65535.0
2019-04-25T10:45:01.304Z,65535.0
2019-04-25T11:00:07.332Z,65535.0
2019-04-25T11:15:01.378Z,65535.0
2019-04-25T11:30:09.119Z,65535.0
2019-04-25T11:45:01.325Z,65535.0
2019-04-25T12:00:01.332Z,65535.0
2019-04-25T12:15:01.312Z,65535.0
2019-04-25T12:30:01.429Z,65535.0
2019-04-25T12:45:01.313Z,65535.0
2019-04-25T13:00:01.263Z,65535.0
2019-04-25T13:15:07.339Z,65535.0
2019-04-25T13:30:01.240Z,65535.0
2019-04-25T13:45:06.408Z,65535.0
2019-04-25T14:00:06.313Z,65535.0
2019-04-25T14:15:01.340Z,65535.0
2019-04-25T14:30:01.306Z,65535.0
2019-04-25T14:45:01.297Z,65535.0
2019-04-25T15:00:04.488Z,65535.0
2019-04-25T15:15:01.301Z,65535.0
2019-04-25T15:30:01.289Z,65535.0
2019-04-25T15:45:01.361Z,65535.0
2019-04-25T16:00:01.372Z,65535.0
2019-04-25T16:12:01.103Z,65481.9
2019-04-25T16:13:01.098Z,65216.1
2019-04-25T16:14:01.097Z,64719.7
2019-04-25T16:15:01.573Z,64041.2
2019-04-25T16:17:01.091Z,63186.2
2019-04-25T16:18:01.084Z,62116.4
2019-04-25T16:19:01.089Z,60942.2
2019-04-25T16:20:01.088Z,59644.3
2019-04-25T16:21:01.232Z,58218.8
2019-04-25T16:22:01.086Z,56681.7
2019-04-25T16:23:01.087Z,55058.9
2019-04-25T16:24:01.088Z,53385.3
2019-04-25T16:25:01.087Z,51673.9
2019-04-25T16:26:01.235Z,49927.3
2019-04-25T16:27:01.111Z,48145.5
2019-04-25T16:28:01.087Z,46381.3
2019-04-25T16:29:01.086Z,44806.4
2019-04-25T16:30:01.086Z,43434.4
2019-04-25T16:31:01.237Z,42216.3
2019-04-25T16:32:01.087Z,41138.9
2019-04-25T16:33:01.090Z,40239.4
2019-04-25T16:34:01.913Z,39459.3
2019-04-25T16:35:01.088Z,38785.1
2019-04-25T16:36:01.300Z,38221.9
2019-04-25T16:37:01.090Z,37753.6
2019-04-25T16:38:01.091Z,37353.5
2019-04-25T16:39:01.090Z,36996.6
2019-04-25T16:40:01.092Z,36670.0
2019-04-25T16:41:01.236Z,36371.5
2019-04-25T16:42:01.094Z,36098.0
2019-04-25T16:43:01.092Z,35848.9
2019-04-25T16:44:01.153Z,35606.7
2019-04-25T16:45:01.091Z,35376.5
2019-04-25T16:46:01.237Z,35160.4
2019-04-25T16:47:08.625Z,34968.7
2019-04-25T16:48:02.805Z,34803.1
2019-04-25T16:49:01.096Z,34610.8
2019-04-25T16:50:01.094Z,34425.7
2019-04-25T16:51:01.265Z,34250.9
2019-04-25T16:52:01.095Z,34076.0
2019-04-25T16:53:01.097Z,33878.4
2019-04-25T16:54:01.118Z,33673.1
2019-04-25T16:55:01.094Z,33460.9
2019-04-25T16:56:01.249Z,33236.9
2019-04-25T16:57:01.097Z,33012.1
2019-04-25T16:58:01.095Z,32793.7
2019-04-25T16:59:01.111Z,32585.2
2019-04-25T17:00:01.116Z,32390.6
2019-04-25T17:01:01.243Z,32216.1
2019-04-25T17:02:01.099Z,32080.5
2019-04-25T17:03:01.098Z,32009.9
2019-04-25T17:04:01.098Z,32008.3
2019-04-25T17:05:01.149Z,32077.9
2019-04-25T17:06:01.248Z,32199.2
2019-04-25T17:07:01.099Z,32382.1
2019-04-25T17:08:01.099Z,32738.8
2019-04-25T17:09:01.099Z,33258.1
2019-04-25T17:10:01.111Z,33926.5
2019-04-25T17:11:01.243Z,34672.6
2019-04-25T17:12:01.099Z,35467.2
2019-04-25T17:14:01.174Z,36268.3
2019-04-25T17:15:01.085Z,36979.1
2019-04-25T17:16:02.168Z,37583.5
2019-04-25T17:17:01.086Z,38153.5
2019-04-25T17:18:01.082Z,38589.8
2019-04-25T17:19:01.084Z,38845.3
2019-04-25T17:20:01.087Z,38916.0
2019-04-25T17:21:01.230Z,38812.8
2019-04-25T17:22:01.087Z,38555.3
2019-04-25T17:23:01.086Z,38185.1
2019-04-25T17:24:01.108Z,37612.9
2019-04-25T17:25:01.085Z,36819.4
2019-04-25T17:26:01.261Z,35822.0
2019-04-25T17:27:01.093Z,34685.5
2019-04-25T17:28:01.087Z,33439.9
2019-04-25T17:29:01.087Z,32163.1
2019-04-25T17:30:01.097Z,30980.9
2019-04-25T17:31:01.911Z,29899.1
2019-04-25T17:32:01.530Z,28814.9
2019-04-25T17:33:01.093Z,27820.5
2019-04-25T17:34:01.090Z,26929.1
2019-04-25T17:35:01.084Z,26124.8
2019-04-25T17:36:01.243Z,25423.5
2019-04-25T17:37:01.090Z,24827.3
2019-04-25T17:38:01.089Z,24272.5
2019-04-25T17:39:01.123Z,23722.9
2019-04-25T17:40:01.095Z,23196.9
2019-04-25T17:41:01.284Z,22691.5
2019-04-25T17:42:01.443Z,22231.1
2019-04-25T17:43:10.387Z,21819.9
2019-04-25T17:44:01.157Z,21413.7
2019-04-25T17:45:01.093Z,20986.9
2019-04-25T17:46:01.239Z,20553.7
2019-04-25T17:47:06.297Z,20135.7
2019-04-25T17:48:01.087Z,19729.5
2019-04-25T17:49:01.088Z,19350.6
2019-04-25T17:50:01.115Z,19005.9
2019-04-25T17:51:01.243Z,18650.7
2019-04-25T17:52:01.088Z,18289.5
2019-04-25T17:53:01.091Z,17909.7
2019-04-25T17:54:01.088Z,17558.1
2019-04-25T17:55:01.090Z,17237.9
2019-04-25T17:56:01.303Z,16950.6
2019-04-25T17:57:01.087Z,16683.2
2019-04-25T17:58:01.091Z,16421.9
2019-04-25T17:59:01.882Z,16173.7
2019-04-25T18:00:01.090Z,15941.3
2019-04-25T18:01:01.237Z,15708.1
2019-04-25T18:02:01.089Z,15475.7
2019-04-25T18:03:01.088Z,15226.7
2019-04-25T18:04:01.089Z,14940.7
2019-04-25T18:05:01.090Z,14623.9
2019-04-25T18:06:01.297Z,14297.5
2019-04-25T18:07:01.092Z,13959.5
2019-04-25T18:08:01.088Z,13640.6
2019-04-25T18:09:01.088Z,13333.4
2019-04-25T18:10:01.089Z,13022.1
2019-04-25T18:11:01.240Z,12703.3
2019-04-25T18:12:01.096Z,12379.0
2019-04-25T18:13:01.089Z,12051.8
2019-04-25T18:14:01.156Z,11717.7
2019-04-25T18:15:01.098Z,11373.6
2019-04-25T18:16:01.738Z,11026.7
2019-04-25T18:17:01.090Z,10676.8
2019-04-25T18:18:01.091Z,10331.1
2019-04-25T18:19:01.089Z,10001.4
2019-04-25T18:20:01.094Z,9691.3
2019-04-25T18:21:16.109Z,9394.6
2019-04-25T18:22:01.278Z,9103.2
2019-04-25T18:23:01.090Z,8820.4
2019-04-25T18:24:01.092Z,8543.5
2019-04-25T18:25:01.148Z,8273.9
2019-04-25T18:26:01.162Z,8009.6
2019-04-25T18:27:01.306Z,7748.3
2019-04-25T18:28:01.092Z,7487.6
2019-04-25T18:29:01.091Z,7226.1
2019-04-25T18:30:01.138Z,6963.5
2019-04-25T18:31:01.097Z,6700.1
2019-04-25T18:32:01.241Z,6436.3
2019-04-25T18:33:09.994Z,6172.4
2019-04-25T18:34:01.094Z,5908.8
2019-04-25T18:35:01.096Z,5646.4
2019-04-25T18:36:01.100Z,5385.2
2019-04-25T18:37:01.241Z,5125.4
2019-04-25T18:38:01.097Z,4868.5
2019-04-25T18:39:01.098Z,4615.1
2019-04-25T18:40:01.096Z,4364.8
2019-04-25T18:41:01.227Z,4119.3
2019-04-25T18:42:01.292Z,3879.8
2019-04-25T18:44:01.209Z,3636.1
2019-04-25T18:45:01.084Z,3400.7
2019-04-25T18:46:01.080Z,3174.1
2019-04-25T18:47:01.101Z,2956.3
2019-04-25T18:48:01.229Z,2747.5
2019-04-25T18:49:01.080Z,2547.7
2019-04-25T18:50:01.105Z,2356.8
2019-04-25T18:51:01.086Z,2174.5
2019-04-25T18:52:01.081Z,2001.0
2019-04-25T18:53:01.226Z,1836.1
2019-04-25T18:54:01.329Z,1679.7
2019-04-25T18:55:01.968Z,1531.6
2019-04-25T18:56:01.111Z,1391.8
2019-04-25T18:57:01.083Z,1260.2
2019-04-25T18:58:01.294Z,1136.5
2019-04-25T18:59:01.083Z,1031.9
2019-04-25T19:00:01.083Z,934.3
2019-04-25T19:01:01.111Z,843.7
2019-04-25T19:02:01.086Z,759.5
2019-04-25T19:03:01.229Z,681.9
2019-04-25T19:04:01.111Z,610.5
2019-04-25T19:05:01.086Z,545.1
2019-04-25T19:06:01.054Z,485.5
2019-04-25T19:07:01.089Z,431.3
2019-04-25T19:08:01.300Z,382.3
2019-04-25T19:09:01.086Z,337.9
2019-04-25T19:10:01.169Z,297.9
2019-04-25T19:11:01.201Z,261.9
2019-04-25T19:12:01.087Z,229.8
2019-04-25T19:13:11.983Z,201.1
2019-04-25T19:14:01.091Z,175.5
2019-04-25T19:15:01.089Z,152.9
2019-04-25T19:16:02.016Z,133.0
2019-04-25T19:17:01.090Z,115.6
2019-04-25T19:18:01.241Z,100.3
2019-04-25T19:19:01.091Z,87.1
2019-04-25T19:20:01.107Z,75.5
2019-04-25T19:21:01.091Z,65.5
2019-04-25T19:22:01.088Z,56.8
2019-04-25T19:23:01.233Z,49.3
2019-04-25T19:24:01.089Z,42.7
2019-04-25T19:25:01.088Z,37.1
2019-04-25T19:26:01.088Z,32.1
2019-04-25T19:27:01.090Z,27.8
2019-04-25T19:28:01.235Z,24.1
2019-04-25T19:29:01.089Z,20.8
2019-04-25T19:30:01.092Z,18.0
2019-04-25T19:31:01.100Z,15.6
2019-04-25T19:32:01.092Z,13.5
2019-04-25T19:33:01.234Z,11.7
2019-04-25T19:34:01.094Z,10.1
2019-04-25T19:35:01.093Z,8.7
2019-04-25T19:36:01.098Z,7.5
2019-04-25T19:37:01.091Z,6.5
2019-04-25T19:38:01.463Z,5.7
2019-04-25T19:39:01.122Z,4.9
2019-04-25T19:40:01.092Z,4.3
2019-04-25T19:41:01.094Z,3.7
2019-04-25T19:42:01.095Z,3.2
2019-04-25T19:43:01.327Z,2.8
2019-04-25T19:44:01.127Z,2.5
2019-04-25T19:45:01.095Z,2.2
2019-04-25T19:46:01.096Z,1.9
2019-04-25T19:47:01.094Z,1.7
2019-04-25T19:48:01.245Z,1.5
2019-04-25T19:49:01.099Z,1.3
2019-04-25T19:50:01.098Z,1.1
2019-04-25T19:51:01.105Z,1.0
2019-04-25T19:52:01.098Z,0.9
2019-04-25T19:53:01.242Z,0.7
2019-04-25T19:54:01.130Z,0.6
2019-04-25T19:55:01.099Z,0.5
2019-04-25T19:57:01.097Z,0.4
2019-04-25T19:58:01.247Z,0.3
2019-04-25T20:00:01.108Z,0.2
2019-04-25T20:01:01.098Z,0.1
